sensor_id;sensor_type;location;lat;lon;timestamp;P1;durP1;ratioP1;P2;durP2;ratioP2
5299;SDS011;70402;42.670;23.258;2023-06-10T00:01:49;10.23;;;8.17;;
5299;SDS011;70402;42.670;23.258;2023-06-10T00:04:15;23.77;;;14.07;;
5299;SDS011;70402;42.670;23.258;2023-06-10T00:06:44;16.70;;;13.87;;
5299;SDS011;70402;42.670;23.258;2023-06-10T00:09:13;18.30;;;12.33;;
5299;SDS011;70402;42.670;23.258;2023-06-10T00:11:39;17.27;;;10.67;;
5299;SDS011;70402;42.670;23.258;2023-06-10T00:14:05;11.20;;;8.37;;
5299;SDS011;70402;42.670;23.258;2023-06-10T00:16:32;14.70;;;7.20;;
5299;SDS011;70402;42.670;23.258;2023-06-10T00:19:00;7.97;;;6.43;;
5299;SDS011;70402;42.670;23.258;2023-06-10T00:21:28;10.10;;;7.43;;
5299;SDS011;70402;42.670;23.258;2023-06-10T00:23:54;10.53;;;7.77;;
5299;SDS011;70402;42.670;23.258;2023-06-10T00:26:23;9.77;;;6.93;;
5299;SDS011;70402;42.670;23.258;2023-06-10T00:28:49;14.80;;;7.40;;
5299;SDS011;70402;42.670;23.258;2023-06-10T00:31:15;10.83;;;7.17;;
5299;SDS011;70402;42.670;23.258;2023-06-10T00:33:42;12.90;;;7.83;;
5299;SDS011;70402;42.670;23.258;2023-06-10T00:36:08;11.90;;;7.40;;
5299;SDS011;70402;42.670;23.258;2023-06-10T00:38:34;8.07;;;6.77;;
5299;SDS011;70402;42.670;23.258;2023-06-10T00:40:59;10.27;;;7.57;;
5299;SDS011;70402;42.670;23.258;2023-06-10T00:43:26;9.97;;;7.90;;
5299;SDS011;70402;42.670;23.258;2023-06-10T00:45:51;15.93;;;7.53;;
5299;SDS011;70402;42.670;23.258;2023-06-10T00:48:17;11.70;;;7.10;;
5299;SDS011;70402;42.670;23.258;2023-06-10T00:50:45;9.83;;;6.43;;
5299;SDS011;70402;42.670;23.258;2023-06-10T00:53:11;8.27;;;6.90;;
5299;SDS011;70402;42.670;23.258;2023-06-10T00:55:37;7.80;;;6.00;;
5299;SDS011;70402;42.670;23.258;2023-06-10T00:58:04;10.60;;;6.50;;
5299;SDS011;70402;42.670;23.258;2023-06-10T01:00:30;9.53;;;6.50;;
5299;SDS011;70402;42.670;23.258;2023-06-10T01:02:56;9.80;;;6.57;;
5299;SDS011;70402;42.670;23.258;2023-06-10T01:05:23;19.93;;;7.50;;
5299;SDS011;70402;42.670;23.258;2023-06-10T01:13:10;12.93;;;7.80;;
5299;SDS011;70402;42.670;23.258;2023-06-10T01:15:37;10.10;;;7.93;;
5299;SDS011;70402;42.670;23.258;2023-06-10T01:18:04;18.50;;;8.00;;
5299;SDS011;70402;42.670;23.258;2023-06-10T01:20:35;11.80;;;6.33;;
5299;SDS011;70402;42.670;23.258;2023-06-10T01:23:05;10.53;;;6.90;;
5299;SDS011;70402;42.670;23.258;2023-06-10T01:25:32;10.60;;;7.30;;
5299;SDS011;70402;42.670;23.258;2023-06-10T01:28:02;10.57;;;6.60;;
5299;SDS011;70402;42.670;23.258;2023-06-10T01:31:23;13.47;;;7.83;;
5299;SDS011;70402;42.670;23.258;2023-06-10T01:33:28;12.10;;;7.30;;
5299;SDS011;70402;42.670;23.258;2023-06-10T01:35:57;10.07;;;7.00;;
5299;SDS011;70402;42.670;23.258;2023-06-10T01:38:25;8.47;;;7.10;;
5299;SDS011;70402;42.670;23.258;2023-06-10T01:40:55;7.50;;;6.57;;
5299;SDS011;70402;42.670;23.258;2023-06-10T01:43:22;14.07;;;7.13;;
5299;SDS011;70402;42.670;23.258;2023-06-10T01:45:47;9.27;;;6.70;;
5299;SDS011;70402;42.670;23.258;2023-06-10T01:48:13;9.63;;;6.30;;
5299;SDS011;70402;42.670;23.258;2023-06-10T01:50:39;8.80;;;7.03;;
5299;SDS011;70402;42.670;23.258;2023-06-10T01:53:05;15.23;;;7.07;;
5299;SDS011;70402;42.670;23.258;2023-06-10T01:55:31;10.17;;;6.60;;
5299;SDS011;70402;42.670;23.258;2023-06-10T01:57:57;15.80;;;7.40;;
5299;SDS011;70402;42.670;23.258;2023-06-10T02:00:23;11.27;;;6.63;;
5299;SDS011;70402;42.670;23.258;2023-06-10T02:02:48;10.03;;;6.77;;
5299;SDS011;70402;42.670;23.258;2023-06-10T02:05:15;12.20;;;7.03;;
5299;SDS011;70402;42.670;23.258;2023-06-10T02:07:41;10.10;;;6.93;;
5299;SDS011;70402;42.670;23.258;2023-06-10T02:10:07;8.40;;;6.73;;
5299;SDS011;70402;42.670;23.258;2023-06-10T02:12:34;7.47;;;6.17;;
5299;SDS011;70402;42.670;23.258;2023-06-10T02:15:00;10.77;;;6.40;;
5299;SDS011;70402;42.670;23.258;2023-06-10T02:17:25;15.07;;;7.20;;
5299;SDS011;70402;42.670;23.258;2023-06-10T02:19:51;12.50;;;7.47;;
5299;SDS011;70402;42.670;23.258;2023-06-10T02:22:21;8.77;;;6.70;;
5299;SDS011;70402;42.670;23.258;2023-06-10T02:24:47;10.27;;;6.67;;
5299;SDS011;70402;42.670;23.258;2023-06-10T02:27:14;13.97;;;6.63;;
5299;SDS011;70402;42.670;23.258;2023-06-10T02:29:40;11.70;;;6.53;;
5299;SDS011;70402;42.670;23.258;2023-06-10T02:32:07;12.53;;;6.70;;
5299;SDS011;70402;42.670;23.258;2023-06-10T02:34:33;10.93;;;6.10;;
5299;SDS011;70402;42.670;23.258;2023-06-10T02:36:59;12.00;;;6.73;;
5299;SDS011;70402;42.670;23.258;2023-06-10T02:39:25;11.40;;;6.43;;
5299;SDS011;70402;42.670;23.258;2023-06-10T02:41:51;10.70;;;6.17;;
5299;SDS011;70402;42.670;23.258;2023-06-10T02:44:17;13.67;;;7.50;;
5299;SDS011;70402;42.670;23.258;2023-06-10T02:46:43;13.13;;;6.27;;
5299;SDS011;70402;42.670;23.258;2023-06-10T02:49:10;9.60;;;6.93;;
5299;SDS011;70402;42.670;23.258;2023-06-10T02:51:37;17.43;;;7.00;;
5299;SDS011;70402;42.670;23.258;2023-06-10T02:54:03;11.07;;;7.13;;
5299;SDS011;70402;42.670;23.258;2023-06-10T02:56:29;13.40;;;6.90;;
5299;SDS011;70402;42.670;23.258;2023-06-10T02:58:54;7.83;;;6.10;;
5299;SDS011;70402;42.670;23.258;2023-06-10T03:01:21;7.97;;;6.13;;
5299;SDS011;70402;42.670;23.258;2023-06-10T03:03:46;8.27;;;6.03;;
5299;SDS011;70402;42.670;23.258;2023-06-10T03:06:13;8.43;;;6.50;;
5299;SDS011;70402;42.670;23.258;2023-06-10T03:08:39;8.30;;;5.63;;
5299;SDS011;70402;42.670;23.258;2023-06-10T03:11:05;12.73;;;6.00;;
5299;SDS011;70402;42.670;23.258;2023-06-10T03:13:31;12.60;;;6.50;;
5299;SDS011;70402;42.670;23.258;2023-06-10T03:15:57;10.47;;;7.10;;
5299;SDS011;70402;42.670;23.258;2023-06-10T03:18:27;8.17;;;6.10;;
5299;SDS011;70402;42.670;23.258;2023-06-10T03:20:54;7.80;;;6.80;;
5299;SDS011;70402;42.670;23.258;2023-06-10T03:23:20;9.83;;;6.37;;
5299;SDS011;70402;42.670;23.258;2023-06-10T03:25:46;13.70;;;6.67;;
5299;SDS011;70402;42.670;23.258;2023-06-10T03:28:12;8.93;;;6.93;;
5299;SDS011;70402;42.670;23.258;2023-06-10T03:30:38;9.90;;;7.60;;
5299;SDS011;70402;42.670;23.258;2023-06-10T03:33:04;15.10;;;8.40;;
5299;SDS011;70402;42.670;23.258;2023-06-10T03:35:30;13.50;;;8.13;;
5299;SDS011;70402;42.670;23.258;2023-06-10T03:37:57;10.37;;;8.20;;
5299;SDS011;70402;42.670;23.258;2023-06-10T03:40:24;15.47;;;9.10;;
5299;SDS011;70402;42.670;23.258;2023-06-10T03:42:50;11.97;;;8.30;;
5299;SDS011;70402;42.670;23.258;2023-06-10T03:45:16;10.70;;;8.07;;
5299;SDS011;70402;42.670;23.258;2023-06-10T03:47:42;10.10;;;7.27;;
5299;SDS011;70402;42.670;23.258;2023-06-10T03:50:09;13.23;;;8.03;;
5299;SDS011;70402;42.670;23.258;2023-06-10T03:52:35;10.93;;;8.20;;
5299;SDS011;70402;42.670;23.258;2023-06-10T03:55:02;9.33;;;7.67;;
5299;SDS011;70402;42.670;23.258;2023-06-10T03:57:29;13.40;;;7.60;;
5299;SDS011;70402;42.670;23.258;2023-06-10T03:59:55;10.63;;;8.00;;
5299;SDS011;70402;42.670;23.258;2023-06-10T04:02:21;7.93;;;7.13;;
5299;SDS011;70402;42.670;23.258;2023-06-10T04:04:47;14.67;;;7.97;;
5299;SDS011;70402;42.670;23.258;2023-06-10T04:07:13;11.93;;;7.97;;
5299;SDS011;70402;42.670;23.258;2023-06-10T04:09:39;9.50;;;7.87;;
5299;SDS011;70402;42.670;23.258;2023-06-10T04:12:05;11.00;;;8.77;;
5299;SDS011;70402;42.670;23.258;2023-06-10T04:14:34;10.53;;;8.03;;
5299;SDS011;70402;42.670;23.258;2023-06-10T04:17:03;12.23;;;8.20;;
5299;SDS011;70402;42.670;23.258;2023-06-10T04:19:32;11.27;;;8.53;;
5299;SDS011;70402;42.670;23.258;2023-06-10T04:22:00;11.57;;;8.60;;
5299;SDS011;70402;42.670;23.258;2023-06-10T04:24:27;12.50;;;8.77;;
5299;SDS011;70402;42.670;23.258;2023-06-10T04:26:53;11.63;;;7.87;;
5299;SDS011;70402;42.670;23.258;2023-06-10T04:29:19;9.70;;;7.70;;
5299;SDS011;70402;42.670;23.258;2023-06-10T04:31:44;12.83;;;8.13;;
5299;SDS011;70402;42.670;23.258;2023-06-10T04:34:12;9.90;;;6.97;;
5299;SDS011;70402;42.670;23.258;2023-06-10T04:36:38;9.23;;;7.30;;
5299;SDS011;70402;42.670;23.258;2023-06-10T04:39:04;13.53;;;8.50;;
5299;SDS011;70402;42.670;23.258;2023-06-10T04:41:33;13.60;;;8.00;;
5299;SDS011;70402;42.670;23.258;2023-06-10T04:43:59;9.30;;;7.33;;
5299;SDS011;70402;42.670;23.258;2023-06-10T04:46:25;11.90;;;7.50;;
5299;SDS011;70402;42.670;23.258;2023-06-10T04:48:51;11.67;;;7.77;;
5299;SDS011;70402;42.670;23.258;2023-06-10T04:51:17;14.03;;;7.40;;
5299;SDS011;70402;42.670;23.258;2023-06-10T04:53:43;11.40;;;7.63;;
5299;SDS011;70402;42.670;23.258;2023-06-10T04:56:10;12.73;;;8.37;;
5299;SDS011;70402;42.670;23.258;2023-06-10T04:58:36;10.10;;;7.87;;
5299;SDS011;70402;42.670;23.258;2023-06-10T05:01:02;12.00;;;7.90;;
5299;SDS011;70402;42.670;23.258;2023-06-10T05:03:28;10.23;;;7.57;;
5299;SDS011;70402;42.670;23.258;2023-06-10T05:05:54;19.03;;;8.33;;
5299;SDS011;70402;42.670;23.258;2023-06-10T05:08:20;9.70;;;7.60;;
5299;SDS011;70402;42.670;23.258;2023-06-10T05:10:46;13.73;;;7.47;;
5299;SDS011;70402;42.670;23.258;2023-06-10T05:13:12;12.77;;;7.83;;
5299;SDS011;70402;42.670;23.258;2023-06-10T05:15:38;10.40;;;7.73;;
5299;SDS011;70402;42.670;23.258;2023-06-10T05:18:04;10.17;;;8.20;;
5299;SDS011;70402;42.670;23.258;2023-06-10T05:20:30;12.13;;;8.27;;
5299;SDS011;70402;42.670;23.258;2023-06-10T05:22:56;14.97;;;8.67;;
5299;SDS011;70402;42.670;23.258;2023-06-10T05:25:22;11.77;;;7.60;;
5299;SDS011;70402;42.670;23.258;2023-06-10T05:27:48;11.10;;;7.97;;
5299;SDS011;70402;42.670;23.258;2023-06-10T05:30:14;14.80;;;8.10;;
5299;SDS011;70402;42.670;23.258;2023-06-10T05:32:40;10.67;;;7.90;;
5299;SDS011;70402;42.670;23.258;2023-06-10T05:35:06;8.33;;;7.53;;
5299;SDS011;70402;42.670;23.258;2023-06-10T05:37:33;11.60;;;6.97;;
5299;SDS011;70402;42.670;23.258;2023-06-10T05:40:00;7.77;;;6.97;;
5299;SDS011;70402;42.670;23.258;2023-06-10T05:42:26;9.40;;;6.67;;
5299;SDS011;70402;42.670;23.258;2023-06-10T05:44:52;6.73;;;5.47;;
5299;SDS011;70402;42.670;23.258;2023-06-10T05:47:18;8.33;;;5.80;;
5299;SDS011;70402;42.670;23.258;2023-06-10T05:49:44;10.23;;;6.53;;
5299;SDS011;70402;42.670;23.258;2023-06-10T05:52:13;10.13;;;6.37;;
5299;SDS011;70402;42.670;23.258;2023-06-10T05:54:39;16.00;;;6.90;;
5299;SDS011;70402;42.670;23.258;2023-06-10T05:57:05;14.20;;;6.83;;
5299;SDS011;70402;42.670;23.258;2023-06-10T05:59:31;10.80;;;5.67;;
5299;SDS011;70402;42.670;23.258;2023-06-10T06:01:58;10.33;;;6.00;;
5299;SDS011;70402;42.670;23.258;2023-06-10T06:04:24;8.63;;;6.40;;
5299;SDS011;70402;42.670;23.258;2023-06-10T06:06:49;9.20;;;5.70;;
5299;SDS011;70402;42.670;23.258;2023-06-10T06:09:15;8.13;;;6.20;;
5299;SDS011;70402;42.670;23.258;2023-06-10T06:11:41;12.93;;;6.40;;
5299;SDS011;70402;42.670;23.258;2023-06-10T06:14:07;16.30;;;8.13;;
5299;SDS011;70402;42.670;23.258;2023-06-10T06:16:33;17.57;;;7.07;;
5299;SDS011;70402;42.670;23.258;2023-06-10T06:18:58;13.75;;;7.03;;
5299;SDS011;70402;42.670;23.258;2023-06-10T06:21:24;13.20;;;7.00;;
5299;SDS011;70402;42.670;23.258;2023-06-10T06:23:50;7.77;;;5.63;;
5299;SDS011;70402;42.670;23.258;2023-06-10T06:26:16;9.80;;;5.40;;
5299;SDS011;70402;42.670;23.258;2023-06-10T06:28:42;8.80;;;5.00;;
5299;SDS011;70402;42.670;23.258;2023-06-10T06:31:08;9.07;;;4.90;;
5299;SDS011;70402;42.670;23.258;2023-06-10T06:33:34;9.73;;;4.47;;
5299;SDS011;70402;42.670;23.258;2023-06-10T06:36:02;7.93;;;4.83;;
5299;SDS011;70402;42.670;23.258;2023-06-10T06:38:29;6.97;;;4.97;;
5299;SDS011;70402;42.670;23.258;2023-06-10T06:40:55;8.07;;;4.73;;
5299;SDS011;70402;42.670;23.258;2023-06-10T06:43:21;6.80;;;3.80;;
5299;SDS011;70402;42.670;23.258;2023-06-10T06:45:46;6.57;;;4.80;;
5299;SDS011;70402;42.670;23.258;2023-06-10T06:48:12;6.10;;;4.47;;
5299;SDS011;70402;42.670;23.258;2023-06-10T06:50:38;6.40;;;3.70;;
5299;SDS011;70402;42.670;23.258;2023-06-10T06:53:06;7.73;;;4.10;;
5299;SDS011;70402;42.670;23.258;2023-06-10T06:55:32;7.40;;;4.73;;
5299;SDS011;70402;42.670;23.258;2023-06-10T06:57:58;8.67;;;4.37;;
5299;SDS011;70402;42.670;23.258;2023-06-10T07:00:27;7.23;;;4.60;;
5299;SDS011;70402;42.670;23.258;2023-06-10T07:02:53;7.43;;;4.20;;
5299;SDS011;70402;42.670;23.258;2023-06-10T07:05:20;9.87;;;4.23;;
5299;SDS011;70402;42.670;23.258;2023-06-10T07:07:46;4.50;;;3.50;;
5299;SDS011;70402;42.670;23.258;2023-06-10T07:10:12;4.90;;;3.87;;
5299;SDS011;70402;42.670;23.258;2023-06-10T07:12:38;12.13;;;5.30;;
5299;SDS011;70402;42.670;23.258;2023-06-10T07:15:04;5.00;;;3.90;;
5299;SDS011;70402;42.670;23.258;2023-06-10T07:17:30;5.43;;;4.00;;
5299;SDS011;70402;42.670;23.258;2023-06-10T07:19:56;5.27;;;3.20;;
5299;SDS011;70402;42.670;23.258;2023-06-10T07:22:24;6.00;;;3.40;;
5299;SDS011;70402;42.670;23.258;2023-06-10T07:24:50;6.13;;;3.57;;
5299;SDS011;70402;42.670;23.258;2023-06-10T07:27:17;5.37;;;3.40;;
5299;SDS011;70402;42.670;23.258;2023-06-10T07:29:43;5.70;;;3.60;;
5299;SDS011;70402;42.670;23.258;2023-06-10T07:32:09;4.87;;;3.30;;
5299;SDS011;70402;42.670;23.258;2023-06-10T07:34:35;9.33;;;3.70;;
5299;SDS011;70402;42.670;23.258;2023-06-10T07:37:01;4.57;;;3.60;;
5299;SDS011;70402;42.670;23.258;2023-06-10T07:39:27;4.23;;;3.53;;
5299;SDS011;70402;42.670;23.258;2023-06-10T07:41:53;8.93;;;4.17;;
5299;SDS011;70402;42.670;23.258;2023-06-10T07:44:21;8.00;;;3.57;;
5299;SDS011;70402;42.670;23.258;2023-06-10T07:46:46;8.10;;;3.70;;
5299;SDS011;70402;42.670;23.258;2023-06-10T07:49:12;5.67;;;3.83;;
5299;SDS011;70402;42.670;23.258;2023-06-10T07:51:38;6.00;;;3.97;;
5299;SDS011;70402;42.670;23.258;2023-06-10T07:54:04;6.90;;;3.90;;
5299;SDS011;70402;42.670;23.258;2023-06-10T07:56:30;5.07;;;3.50;;
5299;SDS011;70402;42.670;23.258;2023-06-10T07:58:57;5.67;;;3.63;;
5299;SDS011;70402;42.670;23.258;2023-06-10T08:01:23;5.50;;;3.40;;
5299;SDS011;70402;42.670;23.258;2023-06-10T08:03:49;6.10;;;3.60;;
5299;SDS011;70402;42.670;23.258;2023-06-10T08:06:15;5.37;;;3.40;;
5299;SDS011;70402;42.670;23.258;2023-06-10T08:08:42;8.03;;;3.23;;
5299;SDS011;70402;42.670;23.258;2023-06-10T08:11:12;3.67;;;2.77;;
5299;SDS011;70402;42.670;23.258;2023-06-10T08:13:38;4.07;;;3.10;;
5299;SDS011;70402;42.670;23.258;2023-06-10T08:16:05;5.03;;;3.37;;
5299;SDS011;70402;42.670;23.258;2023-06-10T08:18:31;7.87;;;3.60;;
5299;SDS011;70402;42.670;23.258;2023-06-10T08:20:57;4.70;;;3.40;;
5299;SDS011;70402;42.670;23.258;2023-06-10T08:23:23;6.93;;;2.90;;
5299;SDS011;70402;42.670;23.258;2023-06-10T08:25:49;8.40;;;3.77;;
5299;SDS011;70402;42.670;23.258;2023-06-10T08:28:16;5.77;;;3.10;;
5299;SDS011;70402;42.670;23.258;2023-06-10T08:30:42;3.20;;;2.60;;
5299;SDS011;70402;42.670;23.258;2023-06-10T08:33:08;3.60;;;2.30;;
5299;SDS011;70402;42.670;23.258;2023-06-10T08:35:34;8.40;;;3.00;;
5299;SDS011;70402;42.670;23.258;2023-06-10T08:38:00;3.37;;;2.70;;
5299;SDS011;70402;42.670;23.258;2023-06-10T08:40:26;5.53;;;2.80;;
5299;SDS011;70402;42.670;23.258;2023-06-10T08:42:53;10.43;;;3.40;;
5299;SDS011;70402;42.670;23.258;2023-06-10T08:45:27;4.90;;;2.70;;
5299;SDS011;70402;42.670;23.258;2023-06-10T08:48:00;6.93;;;2.80;;
5299;SDS011;70402;42.670;23.258;2023-06-10T08:50:33;3.57;;;2.93;;
5299;SDS011;70402;42.670;23.258;2023-06-10T08:53:04;4.53;;;2.50;;
5299;SDS011;70402;42.670;23.258;2023-06-10T08:55:32;4.77;;;2.50;;
5299;SDS011;70402;42.670;23.258;2023-06-10T08:58:01;5.33;;;3.00;;
5299;SDS011;70402;42.670;23.258;2023-06-10T09:00:28;6.23;;;3.07;;
5299;SDS011;70402;42.670;23.258;2023-06-10T09:02:55;4.70;;;2.70;;
5299;SDS011;70402;42.670;23.258;2023-06-10T09:05:22;3.40;;;2.73;;
5299;SDS011;70402;42.670;23.258;2023-06-10T09:07:48;2.77;;;2.40;;
5299;SDS011;70402;42.670;23.258;2023-06-10T09:10:14;9.30;;;3.00;;
5299;SDS011;70402;42.670;23.258;2023-06-10T09:12:40;8.07;;;2.70;;
5299;SDS011;70402;42.670;23.258;2023-06-10T09:15:07;5.33;;;3.20;;
5299;SDS011;70402;42.670;23.258;2023-06-10T09:17:33;5.07;;;3.40;;
5299;SDS011;70402;42.670;23.258;2023-06-10T09:20:01;6.03;;;2.97;;
5299;SDS011;70402;42.670;23.258;2023-06-10T09:22:28;7.23;;;3.70;;
5299;SDS011;70402;42.670;23.258;2023-06-10T09:25:03;3.50;;;2.70;;
5299;SDS011;70402;42.670;23.258;2023-06-10T09:30:23;4.20;;;2.70;;
5299;SDS011;70402;42.670;23.258;2023-06-10T09:32:51;6.10;;;2.83;;
5299;SDS011;70402;42.670;23.258;2023-06-10T09:35:18;4.80;;;3.10;;
5299;SDS011;70402;42.670;23.258;2023-06-10T09:37:44;3.90;;;2.70;;
5299;SDS011;70402;42.670;23.258;2023-06-10T09:40:11;8.13;;;2.83;;
5299;SDS011;70402;42.670;23.258;2023-06-10T09:42:37;4.73;;;3.07;;
5299;SDS011;70402;42.670;23.258;2023-06-10T09:45:04;5.23;;;2.57;;
5299;SDS011;70402;42.670;23.258;2023-06-10T09:47:31;4.13;;;2.80;;
5299;SDS011;70402;42.670;23.258;2023-06-10T09:49:57;11.13;;;2.60;;
5299;SDS011;70402;42.670;23.258;2023-06-10T09:52:23;4.20;;;2.60;;
5299;SDS011;70402;42.670;23.258;2023-06-10T09:54:51;4.73;;;2.97;;
5299;SDS011;70402;42.670;23.258;2023-06-10T09:57:17;5.40;;;2.67;;
5299;SDS011;70402;42.670;23.258;2023-06-10T09:59:45;7.50;;;3.43;;
5299;SDS011;70402;42.670;23.258;2023-06-10T10:02:17;4.20;;;2.90;;
5299;SDS011;70402;42.670;23.258;2023-06-10T10:04:43;5.10;;;3.53;;
5299;SDS011;70402;42.670;23.258;2023-06-10T10:07:10;4.70;;;2.80;;
5299;SDS011;70402;42.670;23.258;2023-06-10T10:09:40;6.40;;;3.33;;
5299;SDS011;70402;42.670;23.258;2023-06-10T10:12:10;7.20;;;3.27;;
5299;SDS011;70402;42.670;23.258;2023-06-10T10:14:45;5.10;;;3.73;;
5299;SDS011;70402;42.670;23.258;2023-06-10T10:17:13;6.03;;;3.10;;
5299;SDS011;70402;42.670;23.258;2023-06-10T10:19:43;20.13;;;3.57;;
5299;SDS011;70402;42.670;23.258;2023-06-10T10:22:15;5.23;;;2.80;;
5299;SDS011;70402;42.670;23.258;2023-06-10T10:24:49;3.50;;;2.93;;
5299;SDS011;70402;42.670;23.258;2023-06-10T10:27:30;8.00;;;3.67;;
5299;SDS011;70402;42.670;23.258;2023-06-10T10:30:01;6.47;;;2.90;;
5299;SDS011;70402;42.670;23.258;2023-06-10T10:32:32;3.77;;;2.73;;
5299;SDS011;70402;42.670;23.258;2023-06-10T10:35:14;4.00;;;2.77;;
5299;SDS011;70402;42.670;23.258;2023-06-10T10:37:43;5.27;;;2.80;;
5299;SDS011;70402;42.670;23.258;2023-06-10T10:40:10;4.73;;;2.80;;
5299;SDS011;70402;42.670;23.258;2023-06-10T10:42:37;6.00;;;2.83;;
5299;SDS011;70402;42.670;23.258;2023-06-10T10:45:04;6.37;;;2.87;;
5299;SDS011;70402;42.670;23.258;2023-06-10T10:47:31;3.00;;;2.30;;
5299;SDS011;70402;42.670;23.258;2023-06-10T10:49:58;7.10;;;2.70;;
5299;SDS011;70402;42.670;23.258;2023-06-10T10:52:25;2.07;;;1.87;;
5299;SDS011;70402;42.670;23.258;2023-06-10T10:54:53;3.63;;;2.10;;
5299;SDS011;70402;42.670;23.258;2023-06-10T10:59:56;4.77;;;2.27;;
5299;SDS011;70402;42.670;23.258;2023-06-10T11:02:33;6.70;;;3.10;;
5299;SDS011;70402;42.670;23.258;2023-06-10T11:05:01;4.80;;;3.00;;
5299;SDS011;70402;42.670;23.258;2023-06-10T11:07:31;4.80;;;2.57;;
5299;SDS011;70402;42.670;23.258;2023-06-10T11:09:58;4.83;;;2.90;;
5299;SDS011;70402;42.670;23.258;2023-06-10T11:12:50;3.03;;;2.63;;
5299;SDS011;70402;42.670;23.258;2023-06-10T11:15:21;4.10;;;2.60;;
5299;SDS011;70402;42.670;23.258;2023-06-10T11:18:07;5.57;;;2.50;;
5299;SDS011;70402;42.670;23.258;2023-06-10T11:31:30;5.13;;;3.33;;
5299;SDS011;70402;42.670;23.258;2023-06-10T11:34:09;4.73;;;2.70;;
5299;SDS011;70402;42.670;23.258;2023-06-10T11:36:36;6.43;;;2.87;;
5299;SDS011;70402;42.670;23.258;2023-06-10T11:39:05;4.57;;;2.87;;
5299;SDS011;70402;42.670;23.258;2023-06-10T11:41:33;4.33;;;3.00;;
5299;SDS011;70402;42.670;23.258;2023-06-10T11:44:03;4.93;;;3.30;;
5299;SDS011;70402;42.670;23.258;2023-06-10T11:46:33;5.10;;;3.23;;
5299;SDS011;70402;42.670;23.258;2023-06-10T11:49:00;5.43;;;2.97;;
5299;SDS011;70402;42.670;23.258;2023-06-10T11:51:29;4.63;;;3.10;;
5299;SDS011;70402;42.670;23.258;2023-06-10T11:53:57;4.60;;;2.80;;
5299;SDS011;70402;42.670;23.258;2023-06-10T11:56:24;4.03;;;3.10;;
5299;SDS011;70402;42.670;23.258;2023-06-10T11:58:54;5.07;;;3.10;;
5299;SDS011;70402;42.670;23.258;2023-06-10T12:01:22;5.47;;;3.20;;
5299;SDS011;70402;42.670;23.258;2023-06-10T12:06:38;7.10;;;3.60;;
5299;SDS011;70402;42.670;23.258;2023-06-10T12:09:29;3.93;;;3.40;;
5299;SDS011;70402;42.670;23.258;2023-06-10T12:11:59;7.60;;;3.10;;
5299;SDS011;70402;42.670;23.258;2023-06-10T12:19:57;5.20;;;3.60;;
5299;SDS011;70402;42.670;23.258;2023-06-10T12:22:25;9.93;;;3.20;;
5299;SDS011;70402;42.670;23.258;2023-06-10T12:25:03;4.77;;;3.27;;
5299;SDS011;70402;42.670;23.258;2023-06-10T12:27:31;4.50;;;3.47;;
5299;SDS011;70402;42.670;23.258;2023-06-10T12:29:59;4.00;;;3.20;;
5299;SDS011;70402;42.670;23.258;2023-06-10T12:32:37;10.83;;;3.60;;
5299;SDS011;70402;42.670;23.258;2023-06-10T12:35:05;4.83;;;3.20;;
5299;SDS011;70402;42.670;23.258;2023-06-10T12:37:32;6.97;;;3.43;;
5299;SDS011;70402;42.670;23.258;2023-06-10T12:40:05;3.13;;;2.83;;
5299;SDS011;70402;42.670;23.258;2023-06-10T12:42:33;3.43;;;2.77;;
5299;SDS011;70402;42.670;23.258;2023-06-10T12:45:01;8.17;;;3.23;;
5299;SDS011;70402;42.670;23.258;2023-06-10T12:47:31;5.63;;;3.20;;
5299;SDS011;70402;42.670;23.258;2023-06-10T12:50:01;4.43;;;3.20;;
5299;SDS011;70402;42.670;23.258;2023-06-10T12:52:28;3.37;;;2.73;;
5299;SDS011;70402;42.670;23.258;2023-06-10T12:54:54;4.43;;;2.90;;
5299;SDS011;70402;42.670;23.258;2023-06-10T12:57:21;4.53;;;3.00;;
5299;SDS011;70402;42.670;23.258;2023-06-10T12:59:47;5.40;;;3.73;;
5299;SDS011;70402;42.670;23.258;2023-06-10T13:02:18;11.10;;;3.43;;
5299;SDS011;70402;42.670;23.258;2023-06-10T13:04:45;4.03;;;3.30;;
5299;SDS011;70402;42.670;23.258;2023-06-10T13:07:12;7.87;;;3.60;;
5299;SDS011;70402;42.670;23.258;2023-06-10T13:09:38;5.10;;;3.47;;
5299;SDS011;70402;42.670;23.258;2023-06-10T13:12:04;5.13;;;3.37;;
5299;SDS011;70402;42.670;23.258;2023-06-10T13:14:31;4.40;;;3.50;;
5299;SDS011;70402;42.670;23.258;2023-06-10T13:16:57;7.43;;;3.80;;
5299;SDS011;70402;42.670;23.258;2023-06-10T13:19:23;5.83;;;3.40;;
5299;SDS011;70402;42.670;23.258;2023-06-10T13:21:49;8.53;;;3.80;;
5299;SDS011;70402;42.670;23.258;2023-06-10T13:24:15;7.13;;;3.73;;
5299;SDS011;70402;42.670;23.258;2023-06-10T13:26:41;9.93;;;4.00;;
5299;SDS011;70402;42.670;23.258;2023-06-10T13:29:07;5.97;;;3.50;;
5299;SDS011;70402;42.670;23.258;2023-06-10T13:31:33;9.10;;;4.03;;
5299;SDS011;70402;42.670;23.258;2023-06-10T13:33:59;10.93;;;4.00;;
5299;SDS011;70402;42.670;23.258;2023-06-10T13:36:25;10.77;;;5.17;;
5299;SDS011;70402;42.670;23.258;2023-06-10T13:38:51;7.20;;;4.53;;
5299;SDS011;70402;42.670;23.258;2023-06-10T13:41:17;6.33;;;4.00;;
5299;SDS011;70402;42.670;23.258;2023-06-10T13:43:43;8.53;;;4.37;;
5299;SDS011;70402;42.670;23.258;2023-06-10T13:46:09;4.80;;;3.33;;
5299;SDS011;70402;42.670;23.258;2023-06-10T13:48:34;5.90;;;3.60;;
5299;SDS011;70402;42.670;23.258;2023-06-10T13:51:00;6.80;;;4.00;;
5299;SDS011;70402;42.670;23.258;2023-06-10T13:53:26;6.70;;;4.40;;
5299;SDS011;70402;42.670;23.258;2023-06-10T13:55:52;7.73;;;4.50;;
5299;SDS011;70402;42.670;23.258;2023-06-10T13:58:18;7.80;;;4.03;;
5299;SDS011;70402;42.670;23.258;2023-06-10T14:00:44;9.83;;;4.50;;
5299;SDS011;70402;42.670;23.258;2023-06-10T14:03:10;6.10;;;3.60;;
5299;SDS011;70402;42.670;23.258;2023-06-10T14:05:36;6.00;;;4.30;;
5299;SDS011;70402;42.670;23.258;2023-06-10T14:08:03;8.63;;;3.93;;
5299;SDS011;70402;42.670;23.258;2023-06-10T14:10:29;6.07;;;4.27;;
5299;SDS011;70402;42.670;23.258;2023-06-10T14:12:55;6.67;;;3.30;;
5299;SDS011;70402;42.670;23.258;2023-06-10T14:15:21;8.67;;;4.00;;
5299;SDS011;70402;42.670;23.258;2023-06-10T14:17:47;6.80;;;4.00;;
5299;SDS011;70402;42.670;23.258;2023-06-10T14:20:13;8.93;;;4.00;;
5299;SDS011;70402;42.670;23.258;2023-06-10T14:22:39;6.50;;;4.37;;
5299;SDS011;70402;42.670;23.258;2023-06-10T14:25:05;4.53;;;3.43;;
5299;SDS011;70402;42.670;23.258;2023-06-10T14:27:31;5.77;;;3.80;;
5299;SDS011;70402;42.670;23.258;2023-06-10T14:29:57;10.60;;;4.83;;
5299;SDS011;70402;42.670;23.258;2023-06-10T14:32:23;4.87;;;3.67;;
5299;SDS011;70402;42.670;23.258;2023-06-10T14:34:49;19.20;;;5.00;;
5299;SDS011;70402;42.670;23.258;2023-06-10T14:37:15;6.83;;;4.23;;
5299;SDS011;70402;42.670;23.258;2023-06-10T14:39:41;6.90;;;3.80;;
5299;SDS011;70402;42.670;23.258;2023-06-10T14:42:07;7.17;;;4.13;;
5299;SDS011;70402;42.670;23.258;2023-06-10T14:44:34;8.70;;;4.43;;
5299;SDS011;70402;42.670;23.258;2023-06-10T14:47:00;5.67;;;3.87;;
5299;SDS011;70402;42.670;23.258;2023-06-10T14:49:26;7.30;;;4.30;;
5299;SDS011;70402;42.670;23.258;2023-06-10T14:51:52;5.17;;;3.80;;
5299;SDS011;70402;42.670;23.258;2023-06-10T14:54:18;7.67;;;4.03;;
5299;SDS011;70402;42.670;23.258;2023-06-10T14:56:44;5.97;;;4.20;;
5299;SDS011;70402;42.670;23.258;2023-06-10T14:59:10;9.17;;;3.97;;
5299;SDS011;70402;42.670;23.258;2023-06-10T15:01:36;6.17;;;4.00;;
5299;SDS011;70402;42.670;23.258;2023-06-10T15:04:02;6.40;;;3.90;;
5299;SDS011;70402;42.670;23.258;2023-06-10T15:06:28;7.00;;;3.70;;
5299;SDS011;70402;42.670;23.258;2023-06-10T15:08:54;5.20;;;3.40;;
5299;SDS011;70402;42.670;23.258;2023-06-10T15:11:20;3.80;;;3.20;;
5299;SDS011;70402;42.670;23.258;2023-06-10T15:13:46;8.80;;;3.30;;